<?xml version="1.0" encoding="UTF-8" standalone="no" ?>
<gpx xmlns="http://www.topografix.com/GPX/1/1" xmlns:xsi="http://www.w3.org/2001/XMLSchema-instance" xsi:schemaLocation="http://www.topografix.com/GPX/1/1 http://www.topografix.com/GPX/1/1/gpx.xsd" version="1.1" creator="VisuGPX - https://www.visugpx.com">
  <metadata>
    <name>entrainement 7 mars 2016</name>
    <desc><![CDATA[partiel fhdggdgdhfhxh]]></desc>
  </metadata>
  <trk>
    <name><![CDATA[7 mars 2016]]></name>
    <cmt><![CDATA[16:15:07]]></cmt>
    <desc><![CDATA[comment ...]]></desc>
    <trkseg>
      <trkpt lat="44.35611" lon="2.52324">
        <ele>594</ele>
        <time>2016-03-07T15:15:06Z</time>
      </trkpt>
      <trkpt lat="44.35608" lon="2.52325">
        <ele>594</ele>
        <time>2016-03-07T15:15:07Z</time>
      </trkpt>
      <trkpt lat="44.35513" lon="2.52326">
        <ele>596</ele>
        <time>2016-03-07T15:15:37Z</time>
      </trkpt>
      <trkpt lat="44.35416" lon="2.52319">
        <ele>599</ele>
        <time>2016-03-07T15:16:04Z</time>
      </trkpt>
      <trkpt lat="44.35413" lon="2.52318">
        <ele>600</ele>
        <time>2016-03-07T15:16:05Z</time>
      </trkpt>
      <trkpt lat="44.35305" lon="2.5232">
        <ele>605</ele>
        <time>2016-03-07T15:16:35Z</time>
      </trkpt>
      <trkpt lat="44.35206" lon="2.52351">
        <ele>605</ele>
        <time>2016-03-07T15:17:05Z</time>
      </trkpt>
      <trkpt lat="44.35116" lon="2.52413">
        <ele>602</ele>
        <time>2016-03-07T15:17:35Z</time>
      </trkpt>
      <trkpt lat="44.35017" lon="2.52443">
        <ele>600</ele>
        <time>2016-03-07T15:18:05Z</time>
      </trkpt>
      <trkpt lat="44.34924" lon="2.52472">
        <ele>604</ele>
        <time>2016-03-07T15:18:35Z</time>
      </trkpt>
      <trkpt lat="44.34921" lon="2.52474">
        <ele>604</ele>
        <time>2016-03-07T15:18:36Z</time>
      </trkpt>
      <trkpt lat="44.34915" lon="2.52484">
        <ele>604</ele>
        <time>2016-03-07T15:18:41Z</time>
      </trkpt>
      <trkpt lat="44.34916" lon="2.52492">
        <ele>604</ele>
        <time>2016-03-07T15:18:45Z</time>
      </trkpt>
      <trkpt lat="44.34985" lon="2.52588">
        <ele>603</ele>
        <time>2016-03-07T15:19:15Z</time>
      </trkpt>
      <trkpt lat="44.35054" lon="2.52701">
        <ele>601</ele>
        <time>2016-03-07T15:19:45Z</time>
      </trkpt>
      <trkpt lat="44.35117" lon="2.52819">
        <ele>597</ele>
        <time>2016-03-07T15:20:15Z</time>
      </trkpt>
      <trkpt lat="44.35144" lon="2.52869">
        <ele>596</ele>
        <time>2016-03-07T15:20:29Z</time>
      </trkpt>
      <trkpt lat="44.35143" lon="2.52876">
        <ele>595</ele>
        <time>2016-03-07T15:20:31Z</time>
      </trkpt>
      <trkpt lat="44.3514" lon="2.52878">
        <ele>595</ele>
        <time>2016-03-07T15:20:32Z</time>
      </trkpt>
      <trkpt lat="44.35137" lon="2.5288">
        <ele>595</ele>
        <time>2016-03-07T15:20:33Z</time>
      </trkpt>
      <trkpt lat="44.35039" lon="2.52852">
        <ele>598</ele>
        <time>2016-03-07T15:21:03Z</time>
      </trkpt>
      <trkpt lat="44.34936" lon="2.52845">
        <ele>601</ele>
        <time>2016-03-07T15:21:33Z</time>
      </trkpt>
      <trkpt lat="44.34838" lon="2.52842">
        <ele>604</ele>
        <time>2016-03-07T15:22:03Z</time>
      </trkpt>
      <trkpt lat="44.34738" lon="2.52839">
        <ele>608</ele>
        <time>2016-03-07T15:22:33Z</time>
      </trkpt>
      <trkpt lat="44.3464" lon="2.52826">
        <ele>610</ele>
        <time>2016-03-07T15:23:03Z</time>
      </trkpt>
      <trkpt lat="44.34542" lon="2.52812">
        <ele>615</ele>
        <time>2016-03-07T15:23:33Z</time>
      </trkpt>
      <trkpt lat="44.34444" lon="2.52803">
        <ele>616</ele>
        <time>2016-03-07T15:24:03Z</time>
      </trkpt>
      <trkpt lat="44.34353" lon="2.52807">
        <ele>616</ele>
        <time>2016-03-07T15:24:33Z</time>
      </trkpt>
      <trkpt lat="44.34282" lon="2.52838">
        <ele>615</ele>
        <time>2016-03-07T15:25:03Z</time>
      </trkpt>
      <trkpt lat="44.34247" lon="2.52877">
        <ele>614</ele>
        <time>2016-03-07T15:25:33Z</time>
      </trkpt>
      <trkpt lat="44.34214" lon="2.52921">
        <ele>617</ele>
        <time>2016-03-07T15:26:04Z</time>
      </trkpt>
      <trkpt lat="44.34186" lon="2.5297">
        <ele>616</ele>
        <time>2016-03-07T15:26:35Z</time>
      </trkpt>
      <trkpt lat="44.34181" lon="2.52983">
        <ele>616</ele>
        <time>2016-03-07T15:26:43Z</time>
      </trkpt>
      <trkpt lat="44.34178" lon="2.52984">
        <ele>616</ele>
        <time>2016-03-07T15:26:45Z</time>
      </trkpt>
      <trkpt lat="44.34177" lon="2.52984">
        <ele>616</ele>
        <time>2016-03-07T15:26:46Z</time>
      </trkpt>
      <trkpt lat="44.34174" lon="2.52983">
        <ele>616</ele>
        <time>2016-03-07T15:26:48Z</time>
      </trkpt>
      <trkpt lat="44.34172" lon="2.52981">
        <ele>616</ele>
        <time>2016-03-07T15:26:49Z</time>
      </trkpt>
      <trkpt lat="44.34171" lon="2.5298">
        <ele>616</ele>
        <time>2016-03-07T15:26:50Z</time>
      </trkpt>
      <trkpt lat="44.34133" lon="2.52962">
        <ele>608</ele>
        <time>2016-03-07T15:27:20Z</time>
      </trkpt>
      <trkpt lat="44.34094" lon="2.52974">
        <ele>603</ele>
        <time>2016-03-07T15:27:50Z</time>
      </trkpt>
      <trkpt lat="44.3405" lon="2.52968">
        <ele>596</ele>
        <time>2016-03-07T15:28:20Z</time>
      </trkpt>
      <trkpt lat="44.34048" lon="2.52968">
        <ele>596</ele>
        <time>2016-03-07T15:28:21Z</time>
      </trkpt>
      <trkpt lat="44.34008" lon="2.52995">
        <ele>591</ele>
        <time>2016-03-07T15:28:51Z</time>
      </trkpt>
      <trkpt lat="44.33971" lon="2.53027">
        <ele>583</ele>
        <time>2016-03-07T15:29:21Z</time>
      </trkpt>
      <trkpt lat="44.33969" lon="2.53028">
        <ele>583</ele>
        <time>2016-03-07T15:29:23Z</time>
      </trkpt>
      <trkpt lat="44.33932" lon="2.53061">
        <ele>576</ele>
        <time>2016-03-07T15:29:54Z</time>
      </trkpt>
      <trkpt lat="44.33925" lon="2.53067">
        <ele>575</ele>
        <time>2016-03-07T15:30:00Z</time>
      </trkpt>
      <trkpt lat="44.33923" lon="2.53067">
        <ele>575</ele>
        <time>2016-03-07T15:30:02Z</time>
      </trkpt>
      <trkpt lat="44.33921" lon="2.53066">
        <ele>574</ele>
        <time>2016-03-07T15:30:03Z</time>
      </trkpt>
      <trkpt lat="44.33919" lon="2.53065">
        <ele>574</ele>
        <time>2016-03-07T15:30:05Z</time>
      </trkpt>
      <trkpt lat="44.33918" lon="2.53063">
        <ele>574</ele>
        <time>2016-03-07T15:30:07Z</time>
      </trkpt>
      <trkpt lat="44.33918" lon="2.53057">
        <ele>574</ele>
        <time>2016-03-07T15:30:10Z</time>
      </trkpt>
      <trkpt lat="44.33947" lon="2.53008">
        <ele>573</ele>
        <time>2016-03-07T15:30:40Z</time>
      </trkpt>
      <trkpt lat="44.33972" lon="2.52949">
        <ele>568</ele>
        <time>2016-03-07T15:31:11Z</time>
      </trkpt>
      <trkpt lat="44.33994" lon="2.52893">
        <ele>567</ele>
        <time>2016-03-07T15:31:42Z</time>
      </trkpt>
      <trkpt lat="44.33993" lon="2.52889">
        <ele>568</ele>
        <time>2016-03-07T15:31:44Z</time>
      </trkpt>
      <trkpt lat="44.33992" lon="2.52888">
        <ele>567</ele>
        <time>2016-03-07T15:31:45Z</time>
      </trkpt>
      <trkpt lat="44.33989" lon="2.52888">
        <ele>567</ele>
        <time>2016-03-07T15:31:47Z</time>
      </trkpt>
      <trkpt lat="44.33985" lon="2.52891">
        <ele>565</ele>
        <time>2016-03-07T15:31:50Z</time>
      </trkpt>
      <trkpt lat="44.33952" lon="2.52937">
        <ele>556</ele>
        <time>2016-03-07T15:32:20Z</time>
      </trkpt>
      <trkpt lat="44.33948" lon="2.52942">
        <ele>556</ele>
        <time>2016-03-07T15:32:24Z</time>
      </trkpt>
      <trkpt lat="44.33945" lon="2.5295">
        <ele>556</ele>
        <time>2016-03-07T15:32:29Z</time>
      </trkpt>
      <trkpt lat="44.33942" lon="2.52951">
        <ele>555</ele>
        <time>2016-03-07T15:32:31Z</time>
      </trkpt>
      <trkpt lat="44.33939" lon="2.52951">
        <ele>554</ele>
        <time>2016-03-07T15:32:33Z</time>
      </trkpt>
      <trkpt lat="44.33938" lon="2.5295">
        <ele>554</ele>
        <time>2016-03-07T15:32:34Z</time>
      </trkpt>
      <trkpt lat="44.33936" lon="2.52948">
        <ele>553</ele>
        <time>2016-03-07T15:32:35Z</time>
      </trkpt>
      <trkpt lat="44.33936" lon="2.52944">
        <ele>553</ele>
        <time>2016-03-07T15:32:37Z</time>
      </trkpt>
      <trkpt lat="44.33938" lon="2.52938">
        <ele>554</ele>
        <time>2016-03-07T15:32:40Z</time>
      </trkpt>
      <trkpt lat="44.33985" lon="2.52857">
        <ele>553</ele>
        <time>2016-03-07T15:33:10Z</time>
      </trkpt>
      <trkpt lat="44.34019" lon="2.52797">
        <ele>552</ele>
        <time>2016-03-07T15:33:41Z</time>
      </trkpt>
      <trkpt lat="44.34052" lon="2.52746">
        <ele>546</ele>
        <time>2016-03-07T15:34:11Z</time>
      </trkpt>
      <trkpt lat="44.34083" lon="2.52677">
        <ele>542</ele>
        <time>2016-03-07T15:34:41Z</time>
      </trkpt>
      <trkpt lat="44.34131" lon="2.5258">
        <ele>531</ele>
        <time>2016-03-07T15:35:11Z</time>
      </trkpt>
      <trkpt lat="44.34162" lon="2.52465">
        <ele>519</ele>
        <time>2016-03-07T15:35:41Z</time>
      </trkpt>
      <trkpt lat="44.34203" lon="2.52365">
        <ele>510</ele>
        <time>2016-03-07T15:36:11Z</time>
      </trkpt>
      <trkpt lat="44.34206" lon="2.52354">
        <ele>510</ele>
        <time>2016-03-07T15:36:14Z</time>
      </trkpt>
      <trkpt lat="44.34208" lon="2.52354">
        <ele>509</ele>
        <time>2016-03-07T15:36:15Z</time>
      </trkpt>
      <trkpt lat="44.34208" lon="2.52249">
        <ele>505</ele>
        <time>2016-03-07T15:36:36Z</time>
      </trkpt>
      <trkpt lat="44.34122" lon="2.52142">
        <ele>498</ele>
        <time>2016-03-07T15:37:06Z</time>
      </trkpt>
      <trkpt lat="44.3401" lon="2.5213">
        <ele>498</ele>
        <time>2016-03-07T15:37:36Z</time>
      </trkpt>
      <trkpt lat="44.34007" lon="2.52131">
        <ele>498</ele>
        <time>2016-03-07T15:37:37Z</time>
      </trkpt>
      <trkpt lat="44.34005" lon="2.5213">
        <ele>498</ele>
        <time>2016-03-07T15:37:38Z</time>
      </trkpt>
      <trkpt lat="44.33891" lon="2.52116">
        <ele>498</ele>
        <time>2016-03-07T15:38:08Z</time>
      </trkpt>
      <trkpt lat="44.3378" lon="2.5207">
        <ele>501</ele>
        <time>2016-03-07T15:38:38Z</time>
      </trkpt>
      <trkpt lat="44.33675" lon="2.52026">
        <ele>505</ele>
        <time>2016-03-07T15:39:08Z</time>
      </trkpt>
      <trkpt lat="44.33576" lon="2.51987">
        <ele>505</ele>
        <time>2016-03-07T15:39:38Z</time>
      </trkpt>
      <trkpt lat="44.33562" lon="2.51977">
        <ele>505</ele>
        <time>2016-03-07T15:39:42Z</time>
      </trkpt>
      <trkpt lat="44.33559" lon="2.5197">
        <ele>503</ele>
        <time>2016-03-07T15:39:44Z</time>
      </trkpt>
      <trkpt lat="44.3355" lon="2.51965">
        <ele>503</ele>
        <time>2016-03-07T15:39:46Z</time>
      </trkpt>
      <trkpt lat="44.33547" lon="2.51961">
        <ele>502</ele>
        <time>2016-03-07T15:39:47Z</time>
      </trkpt>
      <trkpt lat="44.33511" lon="2.51904">
        <ele>507</ele>
        <time>2016-03-07T15:40:02Z</time>
      </trkpt>
      <trkpt lat="44.33512" lon="2.51885">
        <ele>510</ele>
        <time>2016-03-07T15:40:06Z</time>
      </trkpt>
      <trkpt lat="44.33575" lon="2.51774">
        <ele>522</ele>
        <time>2016-03-07T15:40:36Z</time>
      </trkpt>
      <trkpt lat="44.33634" lon="2.51657">
        <ele>533</ele>
        <time>2016-03-07T15:41:06Z</time>
      </trkpt>
      <trkpt lat="44.3369" lon="2.51536">
        <ele>539</ele>
        <time>2016-03-07T15:41:36Z</time>
      </trkpt>
      <trkpt lat="44.33747" lon="2.51473">
        <ele>543</ele>
        <time>2016-03-07T15:41:59Z</time>
      </trkpt>
      <trkpt lat="44.33738" lon="2.5145">
        <ele>545</ele>
        <time>2016-03-07T15:42:04Z</time>
      </trkpt>
      <trkpt lat="44.33736" lon="2.51448">
        <ele>545</ele>
        <time>2016-03-07T15:42:05Z</time>
      </trkpt>
      <trkpt lat="44.33732" lon="2.51425">
        <ele>545</ele>
        <time>2016-03-07T15:42:10Z</time>
      </trkpt>
      <trkpt lat="44.33745" lon="2.51352">
        <ele>546</ele>
        <time>2016-03-07T15:42:30Z</time>
      </trkpt>
      <trkpt lat="44.33753" lon="2.51344">
        <ele>546</ele>
        <time>2016-03-07T15:42:36Z</time>
      </trkpt>
      <trkpt lat="44.33766" lon="2.5128">
        <ele>542</ele>
        <time>2016-03-07T15:43:06Z</time>
      </trkpt>
      <trkpt lat="44.33768" lon="2.51272">
        <ele>541</ele>
        <time>2016-03-07T15:43:10Z</time>
      </trkpt>
      <trkpt lat="44.33769" lon="2.5127">
        <ele>541</ele>
        <time>2016-03-07T15:43:11Z</time>
      </trkpt>
      <trkpt lat="44.3378" lon="2.51202">
        <ele>537</ele>
        <time>2016-03-07T15:43:42Z</time>
      </trkpt>
      <trkpt lat="44.3379" lon="2.51139">
        <ele>530</ele>
        <time>2016-03-07T15:44:12Z</time>
      </trkpt>
      <trkpt lat="44.3381" lon="2.51082">
        <ele>526</ele>
        <time>2016-03-07T15:44:42Z</time>
      </trkpt>
      <trkpt lat="44.33837" lon="2.51038">
        <ele>523</ele>
        <time>2016-03-07T15:45:09Z</time>
      </trkpt>
      <trkpt lat="44.33878" lon="2.51065">
        <ele>517</ele>
        <time>2016-03-07T15:45:40Z</time>
      </trkpt>
      <trkpt lat="44.3392" lon="2.51093">
        <ele>512</ele>
        <time>2016-03-07T15:46:11Z</time>
      </trkpt>
      <trkpt lat="44.33966" lon="2.51105">
        <ele>512</ele>
        <time>2016-03-07T15:46:42Z</time>
      </trkpt>
      <trkpt lat="44.33969" lon="2.51106">
        <ele>511</ele>
        <time>2016-03-07T15:46:44Z</time>
      </trkpt>
      <trkpt lat="44.33987" lon="2.51101">
        <ele>507</ele>
        <time>2016-03-07T15:46:56Z</time>
      </trkpt>
      <trkpt lat="44.3399" lon="2.51098">
        <ele>507</ele>
        <time>2016-03-07T15:46:58Z</time>
      </trkpt>
      <trkpt lat="44.33996" lon="2.51096">
        <ele>507</ele>
        <time>2016-03-07T15:47:02Z</time>
      </trkpt>
      <trkpt lat="44.34002" lon="2.51091">
        <ele>506</ele>
        <time>2016-03-07T15:47:07Z</time>
      </trkpt>
      <trkpt lat="44.34006" lon="2.51091">
        <ele>505</ele>
        <time>2016-03-07T15:47:10Z</time>
      </trkpt>
      <trkpt lat="44.3404" lon="2.51057">
        <ele>508</ele>
        <time>2016-03-07T15:47:32Z</time>
      </trkpt>
      <trkpt lat="44.34095" lon="2.50957">
        <ele>506</ele>
        <time>2016-03-07T15:48:02Z</time>
      </trkpt>
      <trkpt lat="44.34151" lon="2.50845">
        <ele>501</ele>
        <time>2016-03-07T15:48:32Z</time>
      </trkpt>
      <trkpt lat="44.34195" lon="2.50699">
        <ele>501</ele>
        <time>2016-03-07T15:49:02Z</time>
      </trkpt>
      <trkpt lat="44.3423" lon="2.50543">
        <ele>501</ele>
        <time>2016-03-07T15:49:32Z</time>
      </trkpt>
      <trkpt lat="44.34214" lon="2.50383">
        <ele>504</ele>
        <time>2016-03-07T15:50:02Z</time>
      </trkpt>
      <trkpt lat="44.34212" lon="2.50378">
        <ele>504</ele>
        <time>2016-03-07T15:50:03Z</time>
      </trkpt>
      <trkpt lat="44.3421" lon="2.50376">
        <ele>503</ele>
        <time>2016-03-07T15:50:04Z</time>
      </trkpt>
      <trkpt lat="44.34161" lon="2.50235">
        <ele>498</ele>
        <time>2016-03-07T15:50:34Z</time>
      </trkpt>
      <trkpt lat="44.34104" lon="2.501">
        <ele>494</ele>
        <time>2016-03-07T15:51:04Z</time>
      </trkpt>
      <trkpt lat="44.34047" lon="2.49964">
        <ele>497</ele>
        <time>2016-03-07T15:51:34Z</time>
      </trkpt>
      <trkpt lat="44.34027" lon="2.49815">
        <ele>500</ele>
        <time>2016-03-07T15:52:04Z</time>
      </trkpt>
      <trkpt lat="44.34024" lon="2.498">
        <ele>500</ele>
        <time>2016-03-07T15:52:07Z</time>
      </trkpt>
      <trkpt lat="44.3397" lon="2.49695">
        <ele>497</ele>
        <time>2016-03-07T15:52:37Z</time>
      </trkpt>
      <trkpt lat="44.33964" lon="2.49635">
        <ele>499</ele>
        <time>2016-03-07T15:52:52Z</time>
      </trkpt>
      <trkpt lat="44.34016" lon="2.49537">
        <ele>504</ele>
        <time>2016-03-07T15:53:17Z</time>
      </trkpt>
      <trkpt lat="44.3411" lon="2.49492">
        <ele>512</ele>
        <time>2016-03-07T15:53:47Z</time>
      </trkpt>
      <trkpt lat="44.34206" lon="2.49465">
        <ele>520</ele>
        <time>2016-03-07T15:54:17Z</time>
      </trkpt>
      <trkpt lat="44.34305" lon="2.49483">
        <ele>526</ele>
        <time>2016-03-07T15:54:47Z</time>
      </trkpt>
      <trkpt lat="44.34389" lon="2.49415">
        <ele>530</ele>
        <time>2016-03-07T15:55:17Z</time>
      </trkpt>
      <trkpt lat="44.34435" lon="2.49333">
        <ele>529</ele>
        <time>2016-03-07T15:55:47Z</time>
      </trkpt>
      <trkpt lat="44.34467" lon="2.49286">
        <ele>530</ele>
        <time>2016-03-07T15:56:17Z</time>
      </trkpt>
      <trkpt lat="44.34488" lon="2.49246">
        <ele>532</ele>
        <time>2016-03-07T15:56:41Z</time>
      </trkpt>
      <trkpt lat="44.34522" lon="2.4918">
        <ele>534</ele>
        <time>2016-03-07T15:57:11Z</time>
      </trkpt>
      <trkpt lat="44.34555" lon="2.49162">
        <ele>538</ele>
        <time>2016-03-07T15:57:22Z</time>
      </trkpt>
      <trkpt lat="44.34586" lon="2.491">
        <ele>543</ele>
        <time>2016-03-07T15:57:52Z</time>
      </trkpt>
      <trkpt lat="44.34613" lon="2.49059">
        <ele>545</ele>
        <time>2016-03-07T15:58:22Z</time>
      </trkpt>
      <trkpt lat="44.34624" lon="2.49004">
        <ele>550</ele>
        <time>2016-03-07T15:58:52Z</time>
      </trkpt>
      <trkpt lat="44.34634" lon="2.48964">
        <ele>554</ele>
        <time>2016-03-07T15:59:18Z</time>
      </trkpt>
      <trkpt lat="44.34638" lon="2.48966">
        <ele>555</ele>
        <time>2016-03-07T15:59:21Z</time>
      </trkpt>
      <trkpt lat="44.34638" lon="2.48968">
        <ele>555</ele>
        <time>2016-03-07T15:59:22Z</time>
      </trkpt>
      <trkpt lat="44.34641" lon="2.48974">
        <ele>555</ele>
        <time>2016-03-07T15:59:26Z</time>
      </trkpt>
      <trkpt lat="44.34635" lon="2.4903">
        <ele>560</ele>
        <time>2016-03-07T15:59:56Z</time>
      </trkpt>
      <trkpt lat="44.34637" lon="2.49087">
        <ele>563</ele>
        <time>2016-03-07T16:00:27Z</time>
      </trkpt>
      <trkpt lat="44.34621" lon="2.49136">
        <ele>566</ele>
        <time>2016-03-07T16:00:57Z</time>
      </trkpt>
      <trkpt lat="44.3462" lon="2.49143">
        <ele>567</ele>
        <time>2016-03-07T16:01:00Z</time>
      </trkpt>
      <trkpt lat="44.3462" lon="2.492">
        <ele>571</ele>
        <time>2016-03-07T16:01:31Z</time>
      </trkpt>
      <trkpt lat="44.3462" lon="2.49204">
        <ele>571</ele>
        <time>2016-03-07T16:01:33Z</time>
      </trkpt>
      <trkpt lat="44.34623" lon="2.49232">
        <ele>573</ele>
        <time>2016-03-07T16:01:49Z</time>
      </trkpt>
      <trkpt lat="44.34627" lon="2.49234">
        <ele>572</ele>
        <time>2016-03-07T16:01:53Z</time>
      </trkpt>
      <trkpt lat="44.34636" lon="2.49229">
        <ele>570</ele>
        <time>2016-03-07T16:02:01Z</time>
      </trkpt>
      <trkpt lat="44.34636" lon="2.49226">
        <ele>570</ele>
        <time>2016-03-07T16:02:03Z</time>
      </trkpt>
      <trkpt lat="44.34636" lon="2.49213">
        <ele>571</ele>
        <time>2016-03-07T16:02:10Z</time>
      </trkpt>
      <trkpt lat="44.3464" lon="2.4916">
        <ele>575</ele>
        <time>2016-03-07T16:02:40Z</time>
      </trkpt>
      <trkpt lat="44.34665" lon="2.49124">
        <ele>577</ele>
        <time>2016-03-07T16:03:11Z</time>
      </trkpt>
      <trkpt lat="44.34675" lon="2.49104">
        <ele>578</ele>
        <time>2016-03-07T16:03:24Z</time>
      </trkpt>
      <trkpt lat="44.3468" lon="2.4905">
        <ele>582</ele>
        <time>2016-03-07T16:03:55Z</time>
      </trkpt>
      <trkpt lat="44.34698" lon="2.49004">
        <ele>586</ele>
        <time>2016-03-07T16:04:26Z</time>
      </trkpt>
      <trkpt lat="44.34715" lon="2.48955">
        <ele>589</ele>
        <time>2016-03-07T16:04:57Z</time>
      </trkpt>
      <trkpt lat="44.34735" lon="2.48913">
        <ele>592</ele>
        <time>2016-03-07T16:05:27Z</time>
      </trkpt>
      <trkpt lat="44.3476" lon="2.48873">
        <ele>597</ele>
        <time>2016-03-07T16:05:58Z</time>
      </trkpt>
      <trkpt lat="44.34794" lon="2.48846">
        <ele>601</ele>
        <time>2016-03-07T16:06:28Z</time>
      </trkpt>
      <trkpt lat="44.34794" lon="2.48844">
        <ele>601</ele>
        <time>2016-03-07T16:06:29Z</time>
      </trkpt>
      <trkpt lat="44.34826" lon="2.4882">
        <ele>603</ele>
        <time>2016-03-07T16:06:59Z</time>
      </trkpt>
      <trkpt lat="44.34864" lon="2.488">
        <ele>608</ele>
        <time>2016-03-07T16:07:30Z</time>
      </trkpt>
      <trkpt lat="44.34878" lon="2.48787">
        <ele>610</ele>
        <time>2016-03-07T16:07:45Z</time>
      </trkpt>
      <trkpt lat="44.34879" lon="2.4878">
        <ele>609</ele>
        <time>2016-03-07T16:07:50Z</time>
      </trkpt>
      <trkpt lat="44.34878" lon="2.48772">
        <ele>608</ele>
        <time>2016-03-07T16:07:56Z</time>
      </trkpt>
      <trkpt lat="44.34875" lon="2.48767">
        <ele>608</ele>
        <time>2016-03-07T16:08:00Z</time>
      </trkpt>
      <trkpt lat="44.34874" lon="2.48766">
        <ele>608</ele>
        <time>2016-03-07T16:08:01Z</time>
      </trkpt>
      <trkpt lat="44.34873" lon="2.48765">
        <ele>608</ele>
        <time>2016-03-07T16:08:02Z</time>
      </trkpt>
      <trkpt lat="44.34838" lon="2.48744">
        <ele>612</ele>
        <time>2016-03-07T16:08:32Z</time>
      </trkpt>
      <trkpt lat="44.34834" lon="2.48742">
        <ele>612</ele>
        <time>2016-03-07T16:08:36Z</time>
      </trkpt>
      <trkpt lat="44.34833" lon="2.48741">
        <ele>612</ele>
        <time>2016-03-07T16:08:37Z</time>
      </trkpt>
      <trkpt lat="44.34798" lon="2.48724">
        <ele>615</ele>
        <time>2016-03-07T16:09:07Z</time>
      </trkpt>
      <trkpt lat="44.34783" lon="2.4872">
        <ele>618</ele>
        <time>2016-03-07T16:09:21Z</time>
      </trkpt>
      <trkpt lat="44.34782" lon="2.48718">
        <ele>618</ele>
        <time>2016-03-07T16:09:23Z</time>
      </trkpt>
      <trkpt lat="44.34779" lon="2.48717">
        <ele>618</ele>
        <time>2016-03-07T16:09:25Z</time>
      </trkpt>
      <trkpt lat="44.34778" lon="2.48717">
        <ele>618</ele>
        <time>2016-03-07T16:09:26Z</time>
      </trkpt>
      <trkpt lat="44.34776" lon="2.48715">
        <ele>618</ele>
        <time>2016-03-07T16:09:28Z</time>
      </trkpt>
      <trkpt lat="44.34775" lon="2.48715">
        <ele>618</ele>
        <time>2016-03-07T16:09:29Z</time>
      </trkpt>
      <trkpt lat="44.34768" lon="2.48712">
        <ele>619</ele>
        <time>2016-03-07T16:09:35Z</time>
      </trkpt>
      <trkpt lat="44.34766" lon="2.48711">
        <ele>620</ele>
        <time>2016-03-07T16:09:37Z</time>
      </trkpt>
      <trkpt lat="44.34765" lon="2.4871">
        <ele>620</ele>
        <time>2016-03-07T16:09:38Z</time>
      </trkpt>
      <trkpt lat="44.34762" lon="2.48708">
        <ele>620</ele>
        <time>2016-03-07T16:09:41Z</time>
      </trkpt>
      <trkpt lat="44.34759" lon="2.48707">
        <ele>620</ele>
        <time>2016-03-07T16:09:43Z</time>
      </trkpt>
      <trkpt lat="44.34755" lon="2.48704">
        <ele>620</ele>
        <time>2016-03-07T16:09:47Z</time>
      </trkpt>
      <trkpt lat="44.34721" lon="2.48707">
        <ele>624</ele>
        <time>2016-03-07T16:10:16Z</time>
      </trkpt>
      <trkpt lat="44.3472" lon="2.48705">
        <ele>624</ele>
        <time>2016-03-07T16:10:17Z</time>
      </trkpt>
      <trkpt lat="44.34721" lon="2.48703">
        <ele>624</ele>
        <time>2016-03-07T16:10:18Z</time>
      </trkpt>
      <trkpt lat="44.34719" lon="2.48701">
        <ele>623</ele>
        <time>2016-03-07T16:10:20Z</time>
      </trkpt>
      <trkpt lat="44.34718" lon="2.48698">
        <ele>623</ele>
        <time>2016-03-07T16:10:22Z</time>
      </trkpt>
      <trkpt lat="44.34718" lon="2.48695">
        <ele>622</ele>
        <time>2016-03-07T16:10:24Z</time>
      </trkpt>
      <trkpt lat="44.34719" lon="2.48692">
        <ele>621</ele>
        <time>2016-03-07T16:10:26Z</time>
      </trkpt>
      <trkpt lat="44.3472" lon="2.48691">
        <ele>621</ele>
        <time>2016-03-07T16:10:27Z</time>
      </trkpt>
      <trkpt lat="44.34722" lon="2.4869">
        <ele>621</ele>
        <time>2016-03-07T16:10:29Z</time>
      </trkpt>
      <trkpt lat="44.34759" lon="2.48685">
        <ele>624</ele>
        <time>2016-03-07T16:11:00Z</time>
      </trkpt>
      <trkpt lat="44.34796" lon="2.4869">
        <ele>628</ele>
        <time>2016-03-07T16:11:30Z</time>
      </trkpt>
      <trkpt lat="44.34832" lon="2.48686">
        <ele>631</ele>
        <time>2016-03-07T16:12:01Z</time>
      </trkpt>
      <trkpt lat="44.34866" lon="2.48667">
        <ele>633</ele>
        <time>2016-03-07T16:12:32Z</time>
      </trkpt>
      <trkpt lat="44.34899" lon="2.48647">
        <ele>636</ele>
        <time>2016-03-07T16:13:02Z</time>
      </trkpt>
      <trkpt lat="44.3493" lon="2.48622">
        <ele>638</ele>
        <time>2016-03-07T16:13:32Z</time>
      </trkpt>
      <trkpt lat="44.34964" lon="2.48603">
        <ele>643</ele>
        <time>2016-03-07T16:14:02Z</time>
      </trkpt>
      <trkpt lat="44.34998" lon="2.48582">
        <ele>647</ele>
        <time>2016-03-07T16:14:32Z</time>
      </trkpt>
      <trkpt lat="44.35029" lon="2.48563">
        <ele>650</ele>
        <time>2016-03-07T16:15:02Z</time>
      </trkpt>
      <trkpt lat="44.35065" lon="2.48544">
        <ele>652</ele>
        <time>2016-03-07T16:15:33Z</time>
      </trkpt>
      <trkpt lat="44.35102" lon="2.48522">
        <ele>656</ele>
        <time>2016-03-07T16:16:03Z</time>
      </trkpt>
      <trkpt lat="44.35133" lon="2.48501">
        <ele>655</ele>
        <time>2016-03-07T16:16:34Z</time>
      </trkpt>
      <trkpt lat="44.35136" lon="2.48495">
        <ele>654</ele>
        <time>2016-03-07T16:16:57Z</time>
      </trkpt>
      <trkpt lat="44.35134" lon="2.48482">
        <ele>656</ele>
        <time>2016-03-07T16:17:04Z</time>
      </trkpt>
      <trkpt lat="44.35125" lon="2.48427">
        <ele>660</ele>
        <time>2016-03-07T16:17:34Z</time>
      </trkpt>
      <trkpt lat="44.35123" lon="2.48419">
        <ele>660</ele>
        <time>2016-03-07T16:17:38Z</time>
      </trkpt>
      <trkpt lat="44.35122" lon="2.48418">
        <ele>661</ele>
        <time>2016-03-07T16:17:39Z</time>
      </trkpt>
      <trkpt lat="44.3512" lon="2.48416">
        <ele>661</ele>
        <time>2016-03-07T16:17:40Z</time>
      </trkpt>
      <trkpt lat="44.35119" lon="2.48415">
        <ele>661</ele>
        <time>2016-03-07T16:17:41Z</time>
      </trkpt>
      <trkpt lat="44.35115" lon="2.48404">
        <ele>660</ele>
        <time>2016-03-07T16:17:48Z</time>
      </trkpt>
      <trkpt lat="44.35114" lon="2.48404">
        <ele>661</ele>
        <time>2016-03-07T16:17:52Z</time>
      </trkpt>
      <trkpt lat="44.35112" lon="2.48403">
        <ele>661</ele>
        <time>2016-03-07T16:17:54Z</time>
      </trkpt>
      <trkpt lat="44.35104" lon="2.4841">
        <ele>659</ele>
        <time>2016-03-07T16:18:07Z</time>
      </trkpt>
      <trkpt lat="44.35102" lon="2.4841">
        <ele>658</ele>
        <time>2016-03-07T16:18:08Z</time>
      </trkpt>
      <trkpt lat="44.351" lon="2.48409">
        <ele>658</ele>
        <time>2016-03-07T16:18:09Z</time>
      </trkpt>
      <trkpt lat="44.35097" lon="2.4841">
        <ele>659</ele>
        <time>2016-03-07T16:18:10Z</time>
      </trkpt>
      <trkpt lat="44.35092" lon="2.48409">
        <ele>661</ele>
        <time>2016-03-07T16:18:15Z</time>
      </trkpt>
      <trkpt lat="44.35092" lon="2.48407">
        <ele>661</ele>
        <time>2016-03-07T16:18:20Z</time>
      </trkpt>
      <trkpt lat="44.3509" lon="2.48403">
        <ele>662</ele>
        <time>2016-03-07T16:18:29Z</time>
      </trkpt>
      <trkpt lat="44.3509" lon="2.484">
        <ele>660</ele>
        <time>2016-03-07T16:18:45Z</time>
      </trkpt>
      <trkpt lat="44.35092" lon="2.48397">
        <ele>658</ele>
        <time>2016-03-07T16:19:36Z</time>
      </trkpt>
      <trkpt lat="44.35096" lon="2.48397">
        <ele>658</ele>
        <time>2016-03-07T16:19:40Z</time>
      </trkpt>
      <trkpt lat="44.35098" lon="2.48394">
        <ele>658</ele>
        <time>2016-03-07T16:19:49Z</time>
      </trkpt>
      <trkpt lat="44.35096" lon="2.48393">
        <ele>658</ele>
        <time>2016-03-07T16:19:53Z</time>
      </trkpt>
      <trkpt lat="44.35094" lon="2.48395">
        <ele>658</ele>
        <time>2016-03-07T16:19:54Z</time>
      </trkpt>
      <trkpt lat="44.35093" lon="2.48396">
        <ele>658</ele>
        <time>2016-03-07T16:19:55Z</time>
      </trkpt>
      <trkpt lat="44.35091" lon="2.48396">
        <ele>660</ele>
        <time>2016-03-07T16:20:29Z</time>
      </trkpt>
      <trkpt lat="44.3509" lon="2.48396">
        <ele>660</ele>
        <time>2016-03-07T16:20:37Z</time>
      </trkpt>
      <trkpt lat="44.3509" lon="2.48395">
        <ele>660</ele>
        <time>2016-03-07T16:20:46Z</time>
      </trkpt>
      <trkpt lat="44.35093" lon="2.48391">
        <ele>660</ele>
        <time>2016-03-07T16:20:50Z</time>
      </trkpt>
      <trkpt lat="44.35094" lon="2.48396">
        <ele>657</ele>
        <time>2016-03-07T16:20:58Z</time>
      </trkpt>
      <trkpt lat="44.35092" lon="2.48397">
        <ele>656</ele>
        <time>2016-03-07T16:21:02Z</time>
      </trkpt>
      <trkpt lat="44.35092" lon="2.48394">
        <ele>657</ele>
        <time>2016-03-07T16:21:28Z</time>
      </trkpt>
      <trkpt lat="44.3509" lon="2.48394">
        <ele>657</ele>
        <time>2016-03-07T16:21:38Z</time>
      </trkpt>
      <trkpt lat="44.35095" lon="2.48401">
        <ele>657</ele>
        <time>2016-03-07T16:22:08Z</time>
      </trkpt>
      <trkpt lat="44.35096" lon="2.48398">
        <ele>656</ele>
        <time>2016-03-07T16:22:18Z</time>
      </trkpt>
      <trkpt lat="44.35095" lon="2.48395">
        <ele>656</ele>
        <time>2016-03-07T16:22:20Z</time>
      </trkpt>
      <trkpt lat="44.35098" lon="2.48393">
        <ele>655</ele>
        <time>2016-03-07T16:22:21Z</time>
      </trkpt>
      <trkpt lat="44.35099" lon="2.48394">
        <ele>655</ele>
        <time>2016-03-07T16:22:22Z</time>
      </trkpt>
      <trkpt lat="44.35103" lon="2.48392">
        <ele>653</ele>
        <time>2016-03-07T16:22:29Z</time>
      </trkpt>
      <trkpt lat="44.35102" lon="2.48396">
        <ele>650</ele>
        <time>2016-03-07T16:22:54Z</time>
      </trkpt>
      <trkpt lat="44.35102" lon="2.48398">
        <ele>650</ele>
        <time>2016-03-07T16:22:56Z</time>
      </trkpt>
      <trkpt lat="44.35102" lon="2.48401">
        <ele>651</ele>
        <time>2016-03-07T16:22:58Z</time>
      </trkpt>
      <trkpt lat="44.35101" lon="2.48405">
        <ele>654</ele>
        <time>2016-03-07T16:23:14Z</time>
      </trkpt>
      <trkpt lat="44.35096" lon="2.48407">
        <ele>658</ele>
        <time>2016-03-07T16:23:23Z</time>
      </trkpt>
      <trkpt lat="44.35094" lon="2.48398">
        <ele>660</ele>
        <time>2016-03-07T16:23:26Z</time>
      </trkpt>
      <trkpt lat="44.35095" lon="2.48396">
        <ele>660</ele>
        <time>2016-03-07T16:23:27Z</time>
      </trkpt>
      <trkpt lat="44.35099" lon="2.48392">
        <ele>657</ele>
        <time>2016-03-07T16:23:40Z</time>
      </trkpt>
      <trkpt lat="44.35095" lon="2.48394">
        <ele>655</ele>
        <time>2016-03-07T16:24:29Z</time>
      </trkpt>
      <trkpt lat="44.35093" lon="2.48395">
        <ele>655</ele>
        <time>2016-03-07T16:24:31Z</time>
      </trkpt>
      <trkpt lat="44.35092" lon="2.48397">
        <ele>655</ele>
        <time>2016-03-07T16:24:32Z</time>
      </trkpt>
      <trkpt lat="44.35092" lon="2.484">
        <ele>655</ele>
        <time>2016-03-07T16:24:36Z</time>
      </trkpt>
      <trkpt lat="44.35092" lon="2.48402">
        <ele>657</ele>
        <time>2016-03-07T16:24:49Z</time>
      </trkpt>
      <trkpt lat="44.35091" lon="2.484">
        <ele>658</ele>
        <time>2016-03-07T16:25:25Z</time>
      </trkpt>
      <trkpt lat="44.35095" lon="2.48394">
        <ele>658</ele>
        <time>2016-03-07T16:25:31Z</time>
      </trkpt>
      <trkpt lat="44.35097" lon="2.48397">
        <ele>657</ele>
        <time>2016-03-07T16:25:40Z</time>
      </trkpt>
      <trkpt lat="44.35098" lon="2.48401">
        <ele>656</ele>
        <time>2016-03-07T16:25:42Z</time>
      </trkpt>
      <trkpt lat="44.35097" lon="2.484">
        <ele>659</ele>
        <time>2016-03-07T16:26:08Z</time>
      </trkpt>
      <trkpt lat="44.35092" lon="2.48402">
        <ele>660</ele>
        <time>2016-03-07T16:26:23Z</time>
      </trkpt>
      <trkpt lat="44.35091" lon="2.48401">
        <ele>659</ele>
        <time>2016-03-07T16:26:24Z</time>
      </trkpt>
      <trkpt lat="44.35091" lon="2.48399">
        <ele>659</ele>
        <time>2016-03-07T16:26:38Z</time>
      </trkpt>
      <trkpt lat="44.35091" lon="2.48396">
        <ele>659</ele>
        <time>2016-03-07T16:26:40Z</time>
      </trkpt>
      <trkpt lat="44.35093" lon="2.48395">
        <ele>659</ele>
        <time>2016-03-07T16:26:42Z</time>
      </trkpt>
      <trkpt lat="44.35095" lon="2.48397">
        <ele>659</ele>
        <time>2016-03-07T16:26:44Z</time>
      </trkpt>
      <trkpt lat="44.35093" lon="2.48398">
        <ele>659</ele>
        <time>2016-03-07T16:26:47Z</time>
      </trkpt>
      <trkpt lat="44.35093" lon="2.48395">
        <ele>660</ele>
        <time>2016-03-07T16:26:53Z</time>
      </trkpt>
      <trkpt lat="44.35095" lon="2.48393">
        <ele>661</ele>
        <time>2016-03-07T16:27:10Z</time>
      </trkpt>
      <trkpt lat="44.35094" lon="2.4839">
        <ele>658</ele>
        <time>2016-03-07T16:27:20Z</time>
      </trkpt>
      <trkpt lat="44.35096" lon="2.48392">
        <ele>658</ele>
        <time>2016-03-07T16:27:25Z</time>
      </trkpt>
      <trkpt lat="44.351" lon="2.48409">
        <ele>657</ele>
        <time>2016-03-07T16:27:33Z</time>
      </trkpt>
      <trkpt lat="44.35098" lon="2.48406">
        <ele>658</ele>
        <time>2016-03-07T16:27:42Z</time>
      </trkpt>
      <trkpt lat="44.35098" lon="2.48404">
        <ele>658</ele>
        <time>2016-03-07T16:27:43Z</time>
      </trkpt>
      <trkpt lat="44.35096" lon="2.48402">
        <ele>658</ele>
        <time>2016-03-07T16:27:47Z</time>
      </trkpt>
      <trkpt lat="44.35095" lon="2.48396">
        <ele>660</ele>
        <time>2016-03-07T16:27:50Z</time>
      </trkpt>
      <trkpt lat="44.35091" lon="2.48391">
        <ele>662</ele>
        <time>2016-03-07T16:27:54Z</time>
      </trkpt>
      <trkpt lat="44.35092" lon="2.48392">
        <ele>661</ele>
        <time>2016-03-07T16:28:02Z</time>
      </trkpt>
      <trkpt lat="44.35095" lon="2.48393">
        <ele>660</ele>
        <time>2016-03-07T16:28:39Z</time>
      </trkpt>
      <trkpt lat="44.35096" lon="2.48401">
        <ele>660</ele>
        <time>2016-03-07T16:28:42Z</time>
      </trkpt>
      <trkpt lat="44.35096" lon="2.48405">
        <ele>660</ele>
        <time>2016-03-07T16:28:49Z</time>
      </trkpt>
      <trkpt lat="44.35096" lon="2.48408">
        <ele>664</ele>
        <time>2016-03-07T16:29:26Z</time>
      </trkpt>
    </trkseg>
  </trk>
</gpx>